createdAt,value
2022-09-23T00:00:15.619Z,8.83
2022-09-23T00:03:17.025Z,8.87
2022-09-23T00:06:21.865Z,8.84
2022-09-23T00:09:23.260Z,8.88
2022-09-23T00:12:24.722Z,8.91
2022-09-23T00:15:26.354Z,8.99
2022-09-23T00:18:27.775Z,8.94
2022-09-23T00:21:29.334Z,8.90
2022-09-23T00:24:30.742Z,8.84
2022-09-23T00:27:32.294Z,8.77
2022-09-23T00:30:33.785Z,8.74
2022-09-23T00:33:35.337Z,8.68
2022-09-23T00:36:36.769Z,8.63
2022-09-23T00:39:38.206Z,8.55
2022-09-23T00:42:48.772Z,8.53
2022-09-23T00:45:51.167Z,8.48
2022-09-23T00:48:59.113Z,8.53
2022-09-23T00:52:10.859Z,8.50
2022-09-23T00:55:17.449Z,8.42
2022-09-23T00:58:25.708Z,8.42
2022-09-23T01:01:27.403Z,8.37
2022-09-23T01:04:30.073Z,8.28
2022-09-23T01:07:31.488Z,8.25
2022-09-23T01:11:10.573Z,8.20
2022-09-23T01:14:27.250Z,8.21
2022-09-23T01:17:40.414Z,8.23
2022-09-23T01:20:53.942Z,8.26
2022-09-23T01:24:23.183Z,8.36
2022-09-23T01:27:42.805Z,8.38
2022-09-23T01:31:09.413Z,8.43
2022-09-23T01:34:15.225Z,8.47
2022-09-23T01:37:46.773Z,8.51
2022-09-23T01:40:54.260Z,8.58
2022-09-23T01:44:07.978Z,8.63
2022-09-23T01:47:17.713Z,8.59
2022-09-23T01:50:41.279Z,8.59
2022-09-23T01:54:06.988Z,8.52
2022-09-23T01:57:18.459Z,8.50
2022-09-23T02:00:23.255Z,8.48
2022-09-23T02:03:37.007Z,8.44
2022-09-23T02:06:51.856Z,8.40
2022-09-23T02:10:15.420Z,8.41
2022-09-23T02:13:27.936Z,8.36
2022-09-23T02:16:46.553Z,8.30
2022-09-23T02:19:56.327Z,8.25
2022-09-23T02:23:22.826Z,8.23
2022-09-23T02:26:36.937Z,8.19
2022-09-23T02:29:58.754Z,8.17
2022-09-23T02:33:10.204Z,8.15
2022-09-23T02:36:32.322Z,8.14
2022-09-23T02:39:43.257Z,8.11
2022-09-23T02:42:59.282Z,8.12
2022-09-23T02:46:02.438Z,8.15
2022-09-23T02:49:14.965Z,8.16
2022-09-23T02:52:16.436Z,8.14
2022-09-23T02:55:20.652Z,8.19
2022-09-23T02:58:22.094Z,8.19
2022-09-23T03:01:44.677Z,8.18
2022-09-23T03:05:09.131Z,8.25
2022-09-23T03:08:28.781Z,8.29
2022-09-23T03:11:30.343Z,8.28
2022-09-23T03:14:49.417Z,8.34
2022-09-23T03:18:06.134Z,8.39
2022-09-23T03:21:16.138Z,8.41
2022-09-23T03:24:19.875Z,8.51
2022-09-23T03:27:28.320Z,8.57
2022-09-23T03:30:32.512Z,8.58
2022-09-23T03:33:34.298Z,8.60
2022-09-23T03:36:54.352Z,8.58
2022-09-23T03:40:07.210Z,8.58
2022-09-23T03:43:10.340Z,8.57
2022-09-23T03:46:13.105Z,8.71
2022-09-23T03:49:18.478Z,8.80
2022-09-23T03:52:22.345Z,8.89
2022-09-23T03:55:23.841Z,8.94
2022-09-23T03:58:25.268Z,9.02
2022-09-23T04:01:26.853Z,9.15
2022-09-23T04:04:29.047Z,9.20
2022-09-23T04:07:30.884Z,9.30
2022-09-23T04:10:32.372Z,9.35
2022-09-23T04:13:33.806Z,9.46
2022-09-23T04:16:35.299Z,9.56
2022-09-23T04:19:36.853Z,9.65
2022-09-23T04:22:38.251Z,9.70
2022-09-23T04:25:47.335Z,9.67
2022-09-23T04:28:48.735Z,9.65
2022-09-23T04:31:51.262Z,9.64
2022-09-23T04:34:52.725Z,9.66
2022-09-23T04:37:54.131Z,9.65
2022-09-23T04:40:55.555Z,9.65
2022-09-23T04:43:57.187Z,9.68
2022-09-23T04:46:58.646Z,9.72
2022-09-23T04:50:00.188Z,9.74
2022-09-23T04:53:01.678Z,9.77
2022-09-23T04:56:15.321Z,9.78
2022-09-23T04:59:16.797Z,9.84
2022-09-23T05:02:18.251Z,9.89
2022-09-23T05:05:19.792Z,9.90
2022-09-23T05:08:21.214Z,9.94
2022-09-23T05:11:24.192Z,9.93
2022-09-23T05:14:25.587Z,9.92
2022-09-23T05:17:27.045Z,9.90
2022-09-23T05:20:28.468Z,9.92
2022-09-23T05:23:30.295Z,9.95
2022-09-23T05:26:32.905Z,10.00
2022-09-23T05:29:34.605Z,10.02
2022-09-23T05:32:36.034Z,10.07
2022-09-23T05:35:37.508Z,10.12
2022-09-23T05:38:39.477Z,10.19
2022-09-23T05:41:40.969Z,10.24
2022-09-23T05:44:42.376Z,10.27
2022-09-23T05:47:43.860Z,10.39
2022-09-23T05:50:51.977Z,10.45
2022-09-23T05:53:55.512Z,10.47
2022-09-23T05:56:58.441Z,10.50
2022-09-23T06:00:02.144Z,10.56
2022-09-23T06:03:14.858Z,10.69
2022-09-23T06:06:17.932Z,10.79
2022-09-23T06:09:19.380Z,10.84
2022-09-23T06:12:20.776Z,10.90
2022-09-23T06:15:22.214Z,11.01
2022-09-23T06:18:23.626Z,11.07
2022-09-23T06:21:25.065Z,11.16
2022-09-23T06:24:30.985Z,11.27
2022-09-23T06:27:32.859Z,11.39
2022-09-23T06:30:34.292Z,11.46
2022-09-23T06:33:37.358Z,11.55
2022-09-23T06:36:43.727Z,11.61
2022-09-23T06:39:46.233Z,11.67
2022-09-23T06:42:52.058Z,11.73
2022-09-23T06:46:01.358Z,11.81
2022-09-23T06:49:02.786Z,11.90
2022-09-23T06:52:04.236Z,12.05
2022-09-23T06:55:06.675Z,12.14
2022-09-23T06:58:08.132Z,12.22
2022-09-23T07:01:12.964Z,12.28
2022-09-23T07:04:14.503Z,12.47
2022-09-23T07:07:15.950Z,12.53
2022-09-23T07:10:17.356Z,12.62
2022-09-23T07:13:18.851Z,12.71
2022-09-23T07:16:20.313Z,12.82
2022-09-23T07:19:21.796Z,12.95
2022-09-23T07:22:23.345Z,13.13
2022-09-23T07:25:24.797Z,13.36
2022-09-23T07:28:26.236Z,13.70
2022-09-23T07:31:38.252Z,14.13
2022-09-23T07:34:41.309Z,14.55
2022-09-23T07:37:42.767Z,14.60
2022-09-23T07:40:44.296Z,14.24
2022-09-23T07:43:46.450Z,14.04
2022-09-23T07:46:48.978Z,13.81
2022-09-23T07:49:50.427Z,13.83
2022-09-23T07:52:51.843Z,13.79
2022-09-23T07:55:56.634Z,13.85
2022-09-23T07:58:58.085Z,13.92
2022-09-23T08:01:59.609Z,14.10
2022-09-23T08:05:01.071Z,14.13
2022-09-23T08:08:02.759Z,14.24
2022-09-23T08:11:06.624Z,14.36
2022-09-23T08:14:09.446Z,14.44
2022-09-23T08:17:14.079Z,14.54
2022-09-23T08:20:15.558Z,14.70
2022-09-23T08:23:17.620Z,15.02
2022-09-23T08:26:22.148Z,15.11
2022-09-23T08:29:25.407Z,15.30
2022-09-23T08:32:26.822Z,15.22
2022-09-23T08:35:28.968Z,15.49
2022-09-23T08:38:30.403Z,15.54
2022-09-23T08:41:40.547Z,15.60
2022-09-23T08:44:58.467Z,15.42
2022-09-23T08:48:13.809Z,15.44
2022-09-23T08:51:22.463Z,15.28
2022-09-23T08:54:30.477Z,15.72
2022-09-23T08:57:42.638Z,15.75
2022-09-23T09:00:48.077Z,15.72
2022-09-23T09:03:53.918Z,16.01
2022-09-23T09:10:40.316Z,15.63
2022-09-23T09:14:07.241Z,16.01
2022-09-23T09:17:18.830Z,16.21
2022-09-23T09:20:29.298Z,16.38
2022-09-23T09:23:30.697Z,16.51
2022-09-23T09:26:33.838Z,16.75
2022-09-23T09:29:42.087Z,16.73
2022-09-23T09:33:15.414Z,16.89
2022-09-23T09:36:52.444Z,17.05
2022-09-23T09:39:53.957Z,17.16
2022-09-23T09:42:55.455Z,17.07
2022-09-23T09:46:55.004Z,17.17
2022-09-23T09:50:03.056Z,17.42
2022-09-23T09:53:22.533Z,17.79
2022-09-23T09:56:35.727Z,17.63
2022-09-23T09:59:37.313Z,18.02
2022-09-23T10:02:40.624Z,18.06
2022-09-23T10:05:45.036Z,17.96
2022-09-23T10:09:09.044Z,18.28
2022-09-23T10:12:21.724Z,18.04
2022-09-23T10:15:47.642Z,17.78
2022-09-23T10:18:51.161Z,17.74
2022-09-23T10:21:59.166Z,17.74
2022-09-23T10:25:07.646Z,18.08
2022-09-23T10:28:38.214Z,17.78
2022-09-23T10:31:39.673Z,17.97
2022-09-23T10:34:45.887Z,17.64
2022-09-23T10:37:55.203Z,17.73
2022-09-23T10:40:56.789Z,17.91
2022-09-23T10:43:58.221Z,17.88
2022-09-23T10:47:09.758Z,18.11
2022-09-23T10:50:20.194Z,17.74
2022-09-23T10:53:28.470Z,17.78
2022-09-23T10:56:41.357Z,17.25
2022-09-23T11:00:10.742Z,17.46
2022-09-23T11:03:30.988Z,17.59
2022-09-23T11:06:47.349Z,17.46
2022-09-23T11:10:35.229Z,17.65
2022-09-23T11:14:08.213Z,17.91
2022-09-23T11:17:27.995Z,17.95
2022-09-23T11:20:51.695Z,18.42
2022-09-23T11:23:56.291Z,18.92
2022-09-23T11:27:35.692Z,19.00
2022-09-23T11:30:49.565Z,18.80
2022-09-23T11:33:56.859Z,18.56
2022-09-23T11:37:11.201Z,18.75
2022-09-23T11:40:15.729Z,18.96
2022-09-23T11:43:24.867Z,18.84
2022-09-23T11:46:48.189Z,18.49
2022-09-23T11:49:53.475Z,18.53
2022-09-23T11:53:05.600Z,18.63
2022-09-23T11:56:33.900Z,18.69
2022-09-23T11:59:45.570Z,18.79
2022-09-23T12:03:13.650Z,18.98
2022-09-23T12:06:21.295Z,19.36
2022-09-23T12:09:54.100Z,19.44
2022-09-23T12:12:58.042Z,19.82
2022-09-23T12:16:44.144Z,19.84
2022-09-23T12:20:00.664Z,19.89
2022-09-23T12:23:13.900Z,19.89
2022-09-23T12:26:19.790Z,19.33
2022-09-23T12:29:24.482Z,19.42
2022-09-23T12:32:26.557Z,19.22
2022-09-23T12:35:38.289Z,19.41
2022-09-23T12:38:52.262Z,19.21
2022-09-23T12:41:57.206Z,19.03
2022-09-23T12:45:32.890Z,19.20
2022-09-23T12:48:54.230Z,19.14
2022-09-23T12:52:24.817Z,19.15
2022-09-23T12:55:35.308Z,19.05
2022-09-23T12:58:42.549Z,19.03
2022-09-23T13:01:44.744Z,19.29
2022-09-23T13:04:56.875Z,19.03
2022-09-23T13:08:05.015Z,18.92
2022-09-23T13:11:21.771Z,19.15
2022-09-23T13:14:27.587Z,19.05
2022-09-23T13:17:33.254Z,18.99
2022-09-23T13:20:36.958Z,19.13
2022-09-23T13:23:38.398Z,18.95
2022-09-23T13:26:45.421Z,19.01
2022-09-23T13:30:15.846Z,19.29
2022-09-23T13:33:26.558Z,18.70
2022-09-23T13:36:28.211Z,18.56
2022-09-23T13:39:29.616Z,18.84
2022-09-23T13:42:31.201Z,18.72
2022-09-23T13:45:37.923Z,18.85
2022-09-23T13:48:40.885Z,18.80
2022-09-23T13:51:44.843Z,18.56
2022-09-23T13:54:49.889Z,18.41
2022-09-23T13:58:04.020Z,18.24
2022-09-23T14:01:09.787Z,18.14
2022-09-23T14:04:23.759Z,18.26
2022-09-23T14:07:25.891Z,18.17
2022-09-23T14:10:27.701Z,18.22
2022-09-23T14:13:31.737Z,18.29
2022-09-23T14:16:37.786Z,18.22
2022-09-23T14:19:42.198Z,18.11
2022-09-23T14:22:43.942Z,18.04
2022-09-23T14:25:46.812Z,17.96
2022-09-23T14:28:48.453Z,18.02
2022-09-23T14:31:57.020Z,18.00
2022-09-23T14:35:01.617Z,17.96
2022-09-23T14:38:03.280Z,17.94
2022-09-23T14:41:04.728Z,17.80
2022-09-23T14:44:07.761Z,17.77
2022-09-23T14:47:14.284Z,17.50
2022-09-23T14:50:21.414Z,17.46
2022-09-23T14:53:22.803Z,17.40
2022-09-23T14:56:25.373Z,17.33
2022-09-23T14:59:32.599Z,17.33
2022-09-23T15:02:36.902Z,17.18
2022-09-23T15:05:42.721Z,17.23
2022-09-23T15:08:45.100Z,17.22
2022-09-23T15:11:47.256Z,17.21
2022-09-23T15:14:54.917Z,17.10
2022-09-23T15:18:03.742Z,17.11
2022-09-23T15:21:12.912Z,17.13
2022-09-23T15:24:46.997Z,16.97
2022-09-23T15:28:19.269Z,16.82
2022-09-23T15:31:23.111Z,16.62
2022-09-23T15:34:24.631Z,16.49
2022-09-23T15:37:26.126Z,16.30
2022-09-23T15:40:30.125Z,16.15
2022-09-23T15:43:31.548Z,16.02
2022-09-23T15:46:33.042Z,15.95
2022-09-23T15:49:36.513Z,15.84
2022-09-23T15:52:37.963Z,15.73
2022-09-23T15:55:39.399Z,15.65
2022-09-23T15:58:40.903Z,15.53
2022-09-23T16:01:42.883Z,15.45
2022-09-23T16:04:44.486Z,15.38
2022-09-23T16:07:46.013Z,15.27
2022-09-23T16:10:47.444Z,15.19
2022-09-23T16:13:49.216Z,15.10
2022-09-23T16:16:50.691Z,15.01
2022-09-23T16:19:52.127Z,14.93
2022-09-23T16:22:55.798Z,14.82
2022-09-23T16:25:57.249Z,14.77
2022-09-23T16:28:59.336Z,14.70
2022-09-23T16:32:01.069Z,14.59
2022-09-23T16:35:02.634Z,14.56
2022-09-23T16:38:04.187Z,14.53
2022-09-23T16:41:05.648Z,14.47
2022-09-23T16:44:07.610Z,14.44
2022-09-23T16:47:09.104Z,14.39
2022-09-23T16:50:15.590Z,14.39
2022-09-23T16:53:17.003Z,14.37
2022-09-23T16:56:24.382Z,14.37
2022-09-23T16:59:29.528Z,14.36
2022-09-23T17:02:30.971Z,14.36
2022-09-23T17:05:32.514Z,14.35
2022-09-23T17:08:34.072Z,14.33
2022-09-23T17:11:35.548Z,14.32
2022-09-23T17:14:37.059Z,14.28
2022-09-23T17:17:38.815Z,14.26
2022-09-23T17:20:40.249Z,14.25
2022-09-23T17:23:41.698Z,14.21
2022-09-23T17:26:43.130Z,14.20
2022-09-23T17:29:44.605Z,14.16
2022-09-23T17:32:46.028Z,14.10
2022-09-23T17:35:47.519Z,14.08
2022-09-23T17:38:50.139Z,14.10
2022-09-23T17:41:51.556Z,14.06
2022-09-23T17:44:53.178Z,14.02
2022-09-23T17:47:54.598Z,13.97
2022-09-23T17:51:01.371Z,14.00
2022-09-23T17:54:02.797Z,13.99
2022-09-23T17:57:04.290Z,13.93
2022-09-23T18:00:06.276Z,13.92
2022-09-23T18:03:13.137Z,13.94
2022-09-23T18:06:17.286Z,13.98
2022-09-23T18:09:18.622Z,13.99
2022-09-23T18:12:20.058Z,13.96
2022-09-23T18:15:21.561Z,13.94
2022-09-23T18:18:22.988Z,13.91
2022-09-23T18:21:27.323Z,13.90
2022-09-23T18:24:32.432Z,13.88
2022-09-23T18:27:34.740Z,13.85
2022-09-23T18:30:36.194Z,13.86
2022-09-23T18:33:38.141Z,13.85
2022-09-23T18:36:40.012Z,13.83
2022-09-23T18:39:41.425Z,13.81
2022-09-23T18:42:42.884Z,13.79
2022-09-23T18:45:54.499Z,13.75
2022-09-23T18:48:56.518Z,13.75
2022-09-23T18:51:58.315Z,13.72
2022-09-23T18:54:59.738Z,13.74
2022-09-23T18:58:01.476Z,13.77
2022-09-23T19:01:08.363Z,13.81
2022-09-23T19:04:10.286Z,13.82
2022-09-23T19:07:11.764Z,13.76
2022-09-23T19:10:13.195Z,13.70
2022-09-23T19:13:14.659Z,13.63
2022-09-23T19:16:16.935Z,13.53
2022-09-23T19:19:18.501Z,13.45
2022-09-23T19:22:19.900Z,13.38
2022-09-23T19:25:21.332Z,13.28
2022-09-23T19:28:22.814Z,13.20
2022-09-23T19:31:30.071Z,13.13
2022-09-23T19:34:31.768Z,13.04
2022-09-23T19:37:33.180Z,12.98
2022-09-23T19:40:34.668Z,12.92
2022-09-23T19:43:36.138Z,12.90
2022-09-23T19:46:40.052Z,12.85
2022-09-23T19:49:41.533Z,12.80
2022-09-23T19:52:42.962Z,12.77
2022-09-23T19:55:44.412Z,12.74
2022-09-23T19:58:47.852Z,12.74
2022-09-23T20:01:49.416Z,12.75
2022-09-23T20:04:50.921Z,12.71
2022-09-23T20:07:52.349Z,12.68
2022-09-23T20:10:54.767Z,12.67
2022-09-23T20:13:58.450Z,12.64
2022-09-23T20:16:59.895Z,12.60
2022-09-23T20:20:01.633Z,12.57
2022-09-23T20:23:03.148Z,12.57
2022-09-23T20:26:06.081Z,12.59
2022-09-23T20:29:07.733Z,12.58
2022-09-23T20:32:10.164Z,12.60
2022-09-23T20:35:11.607Z,12.62
2022-09-23T20:38:13.001Z,12.63
2022-09-23T20:41:14.424Z,12.69
2022-09-23T20:44:15.881Z,12.68
2022-09-23T20:47:18.505Z,12.69
2022-09-23T20:50:19.932Z,12.70
2022-09-23T20:53:21.334Z,12.70
2022-09-23T20:56:23.423Z,12.69
2022-09-23T20:59:24.852Z,12.69
2022-09-23T21:02:26.325Z,12.68
2022-09-23T21:05:27.779Z,12.72
2022-09-23T21:08:30.553Z,12.70
2022-09-23T21:11:32.339Z,12.70
2022-09-23T21:14:33.784Z,12.69
2022-09-23T21:17:35.223Z,12.68
2022-09-23T21:20:36.632Z,12.72
2022-09-23T21:23:39.184Z,12.71
2022-09-23T21:26:40.608Z,12.68
2022-09-23T21:29:41.987Z,12.71
2022-09-23T21:32:43.373Z,12.70
2022-09-23T21:35:45.825Z,12.71
2022-09-23T21:38:47.246Z,12.73
2022-09-23T21:41:48.656Z,12.73
2022-09-23T21:44:50.076Z,12.74
2022-09-23T21:47:51.512Z,12.72
2022-09-23T21:51:14.924Z,12.73
2022-09-23T21:54:16.604Z,12.74
2022-09-23T21:57:18.005Z,12.78
2022-09-23T22:00:19.529Z,12.78
2022-09-23T22:03:20.916Z,12.78
2022-09-23T22:06:27.122Z,12.83
2022-09-23T22:09:28.686Z,12.85
2022-09-23T22:12:30.121Z,12.84
2022-09-23T22:15:31.580Z,12.84
2022-09-23T22:18:33.000Z,12.83
2022-09-23T22:21:38.817Z,12.85
2022-09-23T22:24:41.520Z,12.88
2022-09-23T22:27:42.921Z,12.91
2022-09-23T22:30:44.352Z,12.95
2022-09-23T22:33:49.747Z,12.93
2022-09-23T22:36:51.189Z,12.97
2022-09-23T22:39:53.137Z,13.00
2022-09-23T22:42:54.540Z,12.99
2022-09-23T22:45:55.970Z,12.98
2022-09-23T22:48:57.355Z,12.96
2022-09-23T22:51:59.356Z,12.97
2022-09-23T22:55:01.219Z,12.95
2022-09-23T22:58:21.249Z,12.95
2022-09-23T23:01:24.225Z,12.94
2022-09-23T23:04:25.721Z,12.92
2022-09-23T23:07:27.176Z,12.92
2022-09-23T23:10:28.591Z,12.88
2022-09-23T23:13:31.142Z,12.85
2022-09-23T23:16:32.626Z,12.85
2022-09-23T23:19:35.635Z,12.83
2022-09-23T23:22:37.052Z,12.82
2022-09-23T23:25:38.449Z,12.80
2022-09-23T23:28:41.235Z,12.80
2022-09-23T23:31:43.534Z,12.80
2022-09-23T23:34:45.014Z,12.78
2022-09-23T23:37:46.426Z,12.76
2022-09-23T23:40:47.873Z,12.75
2022-09-23T23:43:58.287Z,12.73
2022-09-23T23:46:59.782Z,12.71
2022-09-23T23:50:01.281Z,12.73
2022-09-23T23:53:02.863Z,12.72
2022-09-23T23:56:07.330Z,12.72
2022-09-23T23:59:08.743Z,12.69
